Time;durP1;ratioP1;P1;durP2;ratioP2;P2;SDS_P1;SDS_P2;PMS_P1;PMS_P2;Temp;Humidity;BMP_temperature;BMP_pressure;BME280_temperature;BME280_humidity;BME280_pressure;Samples;Min_cycle;Max_cycle;Signal;HPM_P1;HPM_P2
2021/08/24 00:02:46;;;;;;;4.97;1.58;;;22.80;52.70;;;;;;6211205;28;20034;-79
2021/08/24 00:05:49;;;;;;;1.77;1.42;;;22.80;52.70;;;;;;6250468;28;20331;-78
2021/08/24 00:08:50;;;;;;;2.67;1.52;;;22.70;52.90;;;;;;6250083;28;20148;-79
2021/08/24 00:11:51;;;;;;;1.50;1.20;;;22.60;53.10;;;;;;6232863;28;20535;-80
2021/08/24 00:14:52;;;;;;;4.05;1.63;;;22.60;53.20;;;;;;6249655;28;20504;-79
2021/08/24 00:17:55;;;;;;;3.75;1.40;;;22.50;53.30;;;;;;6249539;28;20168;-79
2021/08/24 00:20:56;;;;;;;2.20;1.48;;;22.50;53.40;;;;;;6231365;28;20496;-80
2021/08/24 00:24:00;;;;;;;2.85;1.52;;;22.40;53.50;;;;;;6249157;28;20044;-79
2021/08/24 00:27:01;;;;;;;2.65;1.38;;;22.40;53.60;;;;;;6247275;28;20051;-79
2021/08/24 00:30:03;;;;;;;2.00;1.63;;;22.40;53.80;;;;;;6226717;28;20336;-80
2021/08/24 00:33:04;;;;;;;2.10;1.40;;;22.30;53.80;;;;;;6231873;28;20370;-79
2021/08/24 00:36:05;;;;;;;2.38;1.30;;;22.30;53.80;;;;;;6249506;28;20052;-79
2021/08/24 00:39:06;;;;;;;4.18;1.92;;;22.30;53.80;;;;;;6248680;28;20038;-79
2021/08/24 00:42:19;;;;;;;1.25;1.15;;;22.30;53.90;;;;;;6231623;28;20037;-79
2021/08/24 00:45:20;;;;;;;2.55;1.55;;;22.20;54.00;;;;;;6243177;28;20537;-79
2021/08/24 00:48:28;;;;;;;2.95;1.40;;;22.20;54.10;;;;;;6232356;28;20037;-79
2021/08/24 00:51:32;;;;;;;4.43;1.77;;;22.10;54.30;;;;;;6248676;28;20474;-80
2021/08/24 00:54:35;;;;;;;1.83;1.30;;;22.10;54.40;;;;;;6249617;28;20037;-78
2021/08/24 00:57:37;;;;;;;2.70;1.23;;;22.10;54.70;;;;;;6250443;28;20118;-79
2021/08/24 01:00:39;;;;;;;1.30;1.20;;;22.10;54.70;;;;;;6249560;28;20046;-78
2021/08/24 01:03:47;;;;;;;4.60;2.25;;;22.10;54.70;;;;;;6249045;28;20057;-78
2021/08/24 01:07:05;;;;;;;2.13;1.40;;;22.10;54.80;;;;;;6248360;28;20053;-78
2021/08/24 01:10:26;;;;;;;3.67;2.22;;;22.10;54.80;;;;;;6247881;28;20056;-78
2021/08/24 01:13:37;;;;;;;4.22;2.35;;;22.10;54.80;;;;;;6248304;28;20449;-78
2021/08/24 01:16:56;;;;;;;5.53;1.70;;;22.10;54.80;;;;;;6247842;28;20037;-78
2021/08/24 01:20:25;;;;;;;2.30;1.50;;;22.10;54.90;;;;;;6232002;28;20351;-78
2021/08/24 01:23:38;;;;;;;1.88;1.38;;;22.00;54.80;;;;;;6225057;28;20386;-78
2021/08/24 01:26:46;;;;;;;5.32;1.60;;;22.00;54.90;;;;;;6244304;28;20496;-78
2021/08/24 01:30:08;;;;;;;5.82;1.70;;;21.90;55.00;;;;;;6229627;28;20112;-78
2021/08/24 01:33:12;;;;;;;2.10;1.27;;;21.90;55.10;;;;;;6244990;28;20336;-78
2021/08/24 01:36:18;;;;;;;3.70;1.55;;;21.90;55.10;;;;;;6246538;28;20040;-78
2021/08/24 01:39:45;;;;;;;3.17;1.48;;;21.90;55.20;;;;;;6202524;28;20037;-78
2021/08/24 01:42:46;;;;;;;2.03;1.50;;;21.90;55.40;;;;;;6219646;28;20057;-78
2021/08/24 01:45:53;;;;;;;2.55;1.42;;;21.90;55.50;;;;;;6220670;28;20046;-78
2021/08/24 01:49:00;;;;;;;3.08;1.35;;;21.80;55.40;;;;;;6219927;28;20455;-78
2021/08/24 01:52:07;;;;;;;2.42;1.55;;;21.80;55.50;;;;;;6219567;28;20045;-78
2021/08/24 01:55:23;;;;;;;2.35;1.38;;;21.80;55.50;;;;;;6223028;28;20128;-79
2021/08/24 01:58:32;;;;;;;4.95;1.60;;;21.80;56.20;;;;;;6221259;28;20060;-78
2021/08/24 02:01:37;;;;;;;2.20;1.67;;;21.90;55.70;;;;;;6220504;28;20463;-78
2021/08/24 02:04:50;;;;;;;2.35;1.77;;;21.80;55.60;;;;;;6242804;28;20037;-78
2021/08/24 02:07:56;;;;;;;4.05;1.65;;;21.80;55.70;;;;;;6243263;28;20045;-78
2021/08/24 02:11:00;;;;;;;1.90;1.50;;;21.70;55.70;;;;;;6219920;28;20552;-78
2021/08/24 02:14:07;;;;;;;2.28;1.77;;;21.70;55.90;;;;;;6226227;28;20066;-78
2021/08/24 02:17:12;;;;;;;2.20;1.67;;;21.70;55.90;;;;;;6225926;28;20485;-78
2021/08/24 02:20:22;;;;;;;4.65;1.60;;;21.60;55.90;;;;;;6232821;28;20037;-78
2021/08/24 02:23:29;;;;;;;2.08;1.55;;;21.60;56.10;;;;;;6242154;28;20029;-78
2021/08/24 02:26:32;;;;;;;3.33;1.63;;;21.50;56.20;;;;;;6226050;28;20120;-78
2021/08/24 02:29:34;;;;;;;3.85;1.90;;;21.50;56.30;;;;;;6226146;28;20100;-78
2021/08/24 02:32:40;;;;;;;3.45;1.95;;;21.50;56.50;;;;;;6232759;28;20049;-79
2021/08/24 02:35:50;;;;;;;3.25;1.67;;;21.50;56.60;;;;;;6232141;28;20366;-78
2021/08/24 02:39:02;;;;;;;2.03;1.40;;;21.40;56.60;;;;;;6233833;28;20037;-78
2021/08/24 02:42:17;;;;;;;3.58;1.65;;;21.50;56.70;;;;;;6222360;28;20485;-79
2021/08/24 02:45:26;;;;;;;3.30;1.63;;;21.40;56.70;;;;;;6209234;28;20486;-78
2021/08/24 02:48:32;;;;;;;3.97;1.58;;;21.40;56.80;;;;;;6236145;28;20034;-77
2021/08/24 02:51:33;;;;;;;4.63;1.80;;;21.50;56.90;;;;;;6227054;28;20030;-78
2021/08/24 02:54:44;;;;;;;5.13;1.55;;;21.50;56.90;;;;;;6241003;28;20042;-77
2021/08/24 02:57:45;;;;;;;3.20;1.80;;;21.40;56.90;;;;;;6249736;28;20041;-77
2021/08/24 03:00:48;;;;;;;2.70;1.90;;;21.40;57.00;;;;;;6233439;28;20045;-80
2021/08/24 03:03:50;;;;;;;3.67;1.73;;;21.40;57.00;;;;;;6250355;28;20172;-79
2021/08/24 03:06:57;;;;;;;2.53;1.58;;;21.30;57.10;;;;;;6249977;28;20124;-77
2021/08/24 03:10:02;;;;;;;4.43;1.95;;;21.30;57.10;;;;;;6249521;28;20041;-77
2021/08/24 03:13:22;;;;;;;2.05;1.75;;;21.30;57.10;;;;;;6249566;28;20039;-78
2021/08/24 03:16:36;;;;;;;2.75;1.70;;;21.40;57.10;;;;;;6231504;28;20037;-79
2021/08/24 03:19:39;;;;;;;3.20;1.73;;;21.30;57.00;;;;;;6249902;28;20069;-77
2021/08/24 03:22:41;;;;;;;2.25;1.60;;;21.30;57.10;;;;;;6226393;28;20041;-77
2021/08/24 03:25:47;;;;;;;2.05;1.63;;;21.30;57.00;;;;;;6236694;28;20459;-79
2021/08/24 03:28:48;;;;;;;1.98;1.77;;;21.40;57.10;;;;;;6240156;28;20049;-77
2021/08/24 03:31:55;;;;;;;3.65;1.65;;;21.30;57.10;;;;;;6215979;28;20123;-79
2021/08/24 03:34:56;;;;;;;1.60;1.45;;;21.30;57.20;;;;;;6222956;28;20041;-77
2021/08/24 03:37:57;;;;;;;3.53;1.90;;;21.30;57.30;;;;;;6224003;28;20116;-77
2021/08/24 03:41:02;;;;;;;3.78;1.63;;;21.30;57.30;;;;;;6210010;28;20108;-77
2021/08/24 03:44:03;;;;;;;3.22;1.63;;;21.30;57.20;;;;;;6231452;28;20064;-77
2021/08/24 03:47:04;;;;;;;4.45;1.70;;;21.30;57.20;;;;;;6248069;28;20033;-77
2021/08/24 03:50:06;;;;;;;1.95;1.38;;;21.30;57.20;;;;;;6231340;28;20056;-77
2021/08/24 03:53:07;;;;;;;3.80;1.83;;;21.40;57.30;;;;;;6248261;28;20037;-78
2021/08/24 03:56:08;;;;;;;4.93;1.88;;;21.40;57.30;;;;;;6247765;28;20060;-78
2021/08/24 03:59:12;;;;;;;2.25;1.60;;;21.40;57.30;;;;;;6246339;28;20800;-78
2021/08/24 04:02:14;;;;;;;5.72;1.50;;;21.40;57.20;;;;;;6245852;28;20038;-78
2021/08/24 04:05:15;;;;;;;2.63;1.83;;;21.40;57.20;;;;;;6247122;28;20366;-78
2021/08/24 04:08:16;;;;;;;4.72;1.83;;;21.40;57.20;;;;;;6245517;28;20036;-78
2021/08/24 04:11:17;;;;;;;2.80;1.77;;;21.40;57.20;;;;;;6230497;28;20106;-78
2021/08/24 04:14:18;;;;;;;3.63;2.00;;;21.40;57.20;;;;;;6229562;28;20041;-78
2021/08/24 04:17:20;;;;;;;2.80;1.70;;;21.40;57.30;;;;;;6230643;28;20041;-78
2021/08/24 04:20:21;;;;;;;3.00;1.67;;;21.40;57.40;;;;;;6229480;28;20033;-78
2021/08/24 04:23:23;;;;;;;3.58;2.10;;;21.40;57.30;;;;;;6247097;28;20048;-77
2021/08/24 04:26:26;;;;;;;2.13;1.70;;;21.40;57.30;;;;;;6247089;28;20034;-78
2021/08/24 04:29:27;;;;;;;3.63;1.92;;;21.40;57.20;;;;;;6231643;28;20030;-77
2021/08/24 04:32:29;;;;;;;4.25;1.92;;;21.40;57.20;;;;;;6247635;28;20406;-77
2021/08/24 04:35:32;;;;;;;3.80;1.85;;;21.50;57.20;;;;;;6246093;28;20103;-78
2021/08/24 04:38:35;;;;;;;4.07;2.08;;;21.50;57.40;;;;;;6229711;28;20032;-77
2021/08/24 04:41:35;;;;;;;7.68;2.08;;;21.50;57.10;;;;;;6246185;28;20439;-79
2021/08/24 04:44:37;;;;;;;4.63;2.45;;;21.50;57.10;;;;;;6230318;28;20057;-80
2021/08/24 04:47:38;;;;;;;2.40;2.05;;;21.50;57.10;;;;;;6245164;28;20398;-78
2021/08/24 04:50:39;;;;;;;4.15;2.40;;;21.50;56.70;;;;;;6246287;28;20390;-79
2021/08/24 04:53:40;;;;;;;2.53;1.90;;;21.50;57.20;;;;;;6245344;28;20363;-78
2021/08/24 04:56:41;;;;;;;5.43;2.63;;;21.50;57.20;;;;;;6229737;28;20037;-77
2021/08/24 04:59:42;;;;;;;2.80;1.95;;;21.50;57.20;;;;;;6245497;28;20415;-80
2021/08/24 05:02:43;;;;;;;3.30;1.80;;;21.40;57.10;;;;;;6243618;28;20054;-79
2021/08/24 05:05:44;;;;;;;3.33;2.28;;;21.40;57.20;;;;;;6221383;28;20061;-78
2021/08/24 05:08:47;;;;;;;3.45;2.00;;;21.40;57.10;;;;;;6251471;28;20522;-80
2021/08/24 05:11:48;;;;;;;3.28;1.90;;;21.40;57.20;;;;;;6235615;28;20041;-77
2021/08/24 05:14:49;;;;;;;3.17;2.08;;;21.40;57.30;;;;;;6222023;28;20045;-77
2021/08/24 05:17:50;;;;;;;3.75;2.05;;;21.40;57.30;;;;;;6225336;28;20033;-79
2021/08/24 05:21:01;;;;;;;4.80;1.70;;;21.30;57.30;;;;;;6205891;28;20065;-79
2021/08/24 05:24:02;;;;;;;3.13;2.17;;;21.40;57.40;;;;;;6220835;28;20466;-77
2021/08/24 05:27:04;;;;;;;5.88;2.20;;;21.40;57.30;;;;;;6244558;28;20037;-78
2021/08/24 05:30:09;;;;;;;3.30;1.77;;;21.40;57.20;;;;;;6247834;28;20398;-78
2021/08/24 05:33:10;;;;;;;3.90;2.00;;;21.50;57.20;;;;;;6245956;28;20029;-78
2021/08/24 05:36:11;;;;;;;3.78;2.20;;;21.50;57.00;;;;;;6245529;28;20044;-78
2021/08/24 05:39:13;;;;;;;5.05;1.88;;;21.60;57.00;;;;;;6246913;28;20033;-78
2021/08/24 05:42:14;;;;;;;2.42;1.60;;;21.60;57.00;;;;;;6245933;28;20458;-79
2021/08/24 05:45:15;;;;;;;4.07;2.42;;;21.60;56.90;;;;;;6245811;28;20057;-78
2021/08/24 05:48:17;;;;;;;6.20;2.35;;;21.70;57.00;;;;;;6247059;28;20124;-78
2021/08/24 05:51:19;;;;;;;4.18;2.30;;;21.70;56.90;;;;;;6245431;28;20080;-78
2021/08/24 05:54:21;;;;;;;5.97;2.17;;;21.80;56.80;;;;;;6246822;28;20038;-78
2021/08/24 05:57:22;;;;;;;3.95;2.10;;;21.80;56.70;;;;;;6247258;28;20458;-77
2021/08/24 06:00:23;;;;;;;17.67;2.60;;;21.80;56.60;;;;;;6228241;28;20037;-78
2021/08/24 06:03:23;;;;;;;3.90;2.28;;;21.90;56.60;;;;;;6227204;28;20108;-78
2021/08/24 06:06:28;;;;;;;3.72;2.40;;;21.90;56.50;;;;;;6226958;28;20045;-78
2021/08/24 06:09:28;;;;;;;5.78;2.33;;;21.90;56.40;;;;;;6256461;28;20503;-79
2021/08/24 06:12:29;;;;;;;7.60;2.17;;;22.00;56.40;;;;;;6245954;28;20037;-78
2021/08/24 06:15:31;;;;;;;8.77;2.63;;;22.00;56.30;;;;;;6245731;28;20065;-78
2021/08/24 06:18:35;;;;;;;6.20;2.13;;;22.10;56.30;;;;;;6278252;28;20510;-80
2021/08/24 06:21:38;;;;;;;4.45;2.95;;;22.10;56.20;;;;;;6245672;28;20377;-79
2021/08/24 06:24:38;;;;;;;4.55;2.42;;;22.10;56.10;;;;;;6247322;28;20120;-78
2021/08/24 06:27:40;;;;;;;10.48;2.72;;;22.10;56.10;;;;;;6247036;28;20045;-80
2021/08/24 06:30:41;;;;;;;7.47;2.03;;;22.20;56.00;;;;;;6245076;28;20034;-79
2021/08/24 06:33:42;;;;;;;11.30;2.08;;;22.20;55.90;;;;;;6228600;28;20049;-79
2021/08/24 06:36:43;;;;;;;6.90;2.55;;;22.20;55.70;;;;;;6245076;28;20360;-80
2021/08/24 06:39:44;;;;;;;5.65;2.75;;;22.30;55.70;;;;;;6227905;28;20061;-80
2021/08/24 06:42:49;;;;;;;6.63;2.22;;;22.30;55.70;;;;;;6226016;28;20041;-80
2021/08/24 06:45:50;;;;;;;6.97;2.95;;;22.30;55.60;;;;;;6223167;28;20033;-79
2021/08/24 06:48:51;;;;;;;5.35;2.15;;;22.40;55.50;;;;;;6229267;28;20116;-79
2021/08/24 06:51:52;;;;;;;4.22;2.38;;;22.40;55.50;;;;;;6245111;28;20061;-79
2021/08/24 06:54:53;;;;;;;10.20;2.45;;;22.40;55.40;;;;;;6228539;28;20047;-80
2021/08/24 06:57:54;;;;;;;15.48;2.47;;;22.50;55.40;;;;;;6227889;28;20037;-78
2021/08/24 07:00:55;;;;;;;3.92;2.40;;;22.50;55.30;;;;;;6249376;28;20945;-80
2021/08/24 07:03:56;;;;;;;6.43;2.28;;;22.50;55.20;;;;;;6248756;28;20277;-79
2021/08/24 07:06:57;;;;;;;4.97;2.47;;;22.60;55.10;;;;;;6252991;28;20091;-79
2021/08/24 07:09:58;;;;;;;7.55;2.83;;;22.70;55.00;;;;;;6251093;28;20462;-78
2021/08/24 07:12:59;;;;;;;5.50;2.33;;;22.60;54.90;;;;;;6251207;28;20047;-77
2021/08/24 07:16:04;;;;;;;11.02;2.53;;;22.70;54.90;;;;;;6251049;28;20037;-78
2021/08/24 07:19:05;;;;;;;7.05;3.10;;;22.70;54.80;;;;;;6248918;28;20480;-78
2021/08/24 07:22:05;;;;;;;6.78;2.80;;;22.70;54.90;;;;;;6249352;28;20044;-78
2021/08/24 07:25:09;;;;;;;2.97;2.30;;;22.70;54.90;;;;;;6248796;28;20057;-78
2021/08/24 07:28:10;;;;;;;5.50;2.75;;;22.70;54.90;;;;;;6249734;28;20047;-78
2021/08/24 07:31:12;;;;;;;7.35;2.70;;;22.70;54.80;;;;;;6249240;28;20120;-79
2021/08/24 07:34:14;;;;;;;10.52;2.40;;;22.80;54.80;;;;;;6249532;28;20458;-79
2021/08/24 07:37:15;;;;;;;9.85;2.58;;;22.80;54.80;;;;;;6249882;28;20087;-78
2021/08/24 07:44:37;;;;;;;12.93;2.13;;;22.80;54.80;;;;;;6250250;28;20042;-79
2021/08/24 07:47:38;;;;;;;7.47;2.60;;;22.80;54.70;;;;;;6249575;28;20267;-79
2021/08/24 07:50:40;;;;;;;8.95;2.88;;;22.80;54.60;;;;;;6250740;28;20393;-79
2021/08/24 07:53:41;;;;;;;7.07;2.65;;;22.90;54.50;;;;;;6248954;28;20049;-79
2021/08/24 07:56:42;;;;;;;4.57;2.50;;;23.00;54.50;;;;;;6227920;28;20041;-80
2021/08/24 07:59:45;;;;;;;5.30;2.50;;;23.00;54.50;;;;;;6250118;28;20374;-77
2021/08/24 08:02:46;;;;;;;6.38;2.58;;;23.00;54.50;;;;;;6247718;28;20045;-79
2021/08/24 08:05:47;;;;;;;4.10;2.58;;;23.00;54.40;;;;;;6242941;28;20042;-78
2021/08/24 08:08:48;;;;;;;4.05;2.10;;;23.10;54.30;;;;;;6250376;28;20080;-79
2021/08/24 08:11:50;;;;;;;13.98;2.97;;;23.20;54.10;;;;;;6232347;28;20384;-79
2021/08/24 08:14:51;;;;;;;6.57;2.80;;;23.30;53.90;;;;;;6243321;28;20041;-77
2021/08/24 08:17:52;;;;;;;6.60;2.65;;;23.30;53.70;;;;;;6260851;28;20049;-78
2021/08/24 08:20:53;;;;;;;7.78;2.53;;;23.50;53.60;;;;;;6249058;28;20034;-79
2021/08/24 08:23:54;;;;;;;3.15;1.83;;;23.60;53.20;;;;;;6249236;28;20411;-78
2021/08/24 08:26:55;;;;;;;3.05;1.65;;;23.60;53.00;;;;;;6250119;28;20041;-79
2021/08/24 08:29:56;;;;;;;4.07;2.25;;;23.70;52.70;;;;;;6248476;28;20127;-79
2021/08/24 08:32:59;;;;;;;6.43;2.25;;;23.80;52.50;;;;;;6246534;28;20072;-78
2021/08/24 08:36:00;;;;;;;2.95;2.05;;;23.90;52.30;;;;;;6249379;28;20041;-78
2021/08/24 08:39:01;;;;;;;6.95;2.35;;;24.00;52.00;;;;;;6249433;28;20044;-78
2021/08/24 08:42:21;;;;;;;5.18;2.22;;;24.10;51.70;;;;;;6246616;28;20037;-78
2021/08/24 08:45:38;;;;;;;8.00;2.20;;;24.20;51.50;;;;;;6248069;28;20148;-78
2021/08/24 08:48:46;;;;;;;4.38;2.05;;;24.30;51.30;;;;;;6229921;28;20029;-78
2021/08/24 08:52:01;;;;;;;12.52;2.42;;;24.50;50.90;;;;;;6245707;28;20473;-79
2021/08/24 08:55:41;;;;;;;5.35;3.00;;;24.50;50.80;;;;;;6229985;28;20042;-79
2021/08/24 08:59:08;;;;;;;5.70;2.28;;;24.50;50.90;;;;;;6246281;28;20025;-80
2021/08/24 09:02:18;;;;;;;3.30;1.92;;;24.60;50.70;;;;;;6243384;28;20045;-79
2021/08/24 09:05:25;;;;;;;6.18;3.45;;;24.70;50.40;;;;;;6229113;28;20362;-78
2021/08/24 09:08:28;;;;;;;3.72;1.98;;;24.70;50.20;;;;;;6246861;28;20067;-78
2021/08/24 09:11:34;;;;;;;6.15;3.47;;;24.80;49.80;;;;;;6238874;28;20033;-78
2021/08/24 09:14:48;;;;;;;4.30;1.92;;;24.90;49.50;;;;;;6245261;28;20484;-77
2021/08/24 09:17:51;;;;;;;5.35;2.33;;;24.90;49.30;;;;;;6243390;28;20382;-78
2021/08/24 09:21:04;;;;;;;9.02;2.50;;;25.00;49.30;;;;;;6227494;28;20116;-77
2021/08/24 09:24:21;;;;;;;3.83;2.53;;;25.10;49.50;;;;;;6242595;28;20132;-77
2021/08/24 09:27:27;;;;;;;11.52;2.63;;;25.00;49.50;;;;;;6243911;28;20463;-77
2021/08/24 09:30:29;;;;;;;5.28;2.80;;;25.10;49.50;;;;;;6235214;28;20511;-77
2021/08/24 09:33:31;;;;;;;6.55;2.25;;;25.10;49.50;;;;;;6228674;28;20041;-76
2021/08/24 09:36:32;;;;;;;7.18;2.50;;;25.10;49.50;;;;;;6219661;28;20030;-76
2021/08/24 09:40:03;;;;;;;5.30;2.50;;;25.10;49.60;;;;;;6202321;28;20117;-77
2021/08/24 09:43:24;;;;;;;7.60;3.13;;;25.00;49.60;;;;;;6232720;28;20044;-76
2021/08/24 09:46:32;;;;;;;6.63;2.67;;;25.00;49.70;;;;;;6217744;28;20049;-75
2021/08/24 09:49:35;;;;;;;;;;;25.00;49.60;;;;;;6217699;28;20099;-75
2021/08/24 09:52:38;;;;;;;3.70;2.47;;;25.10;49.60;;;;;;6219955;28;20008;-75
2021/08/24 09:55:49;;;;;;;7.97;3.10;;;25.10;49.50;;;;;;6216459;28;20044;-76
2021/08/24 09:58:50;;;;;;;7.88;3.03;;;25.10;49.50;;;;;;6216073;28;20026;-76
2021/08/24 10:01:51;;;;;;;6.03;2.70;;;25.10;49.40;;;;;;6218355;28;20037;-78
2021/08/24 10:04:54;;;;;;;4.47;2.40;;;25.10;49.30;;;;;;6245295;28;20109;-79
2021/08/24 10:07:58;;;;;;;6.00;2.63;;;25.10;49.20;;;;;;6243661;28;20083;-78
2021/08/24 10:11:13;;;;;;;4.88;2.40;;;25.20;49.10;;;;;;6244542;28;20026;-77
2021/08/24 10:14:26;;;;;;;10.57;2.40;;;25.30;48.90;;;;;;6243517;28;20225;-77
2021/08/24 10:17:34;;;;;;;6.97;2.60;;;25.40;48.60;;;;;;6243163;28;20116;-77
2021/08/24 10:20:55;;;;;;;;;;;25.50;48.40;;;;;;6225508;28;20037;-77
2021/08/24 10:23:59;;;;;;;4.07;2.08;;;25.60;48.10;;;;;;6225048;28;19964;-76
2021/08/24 10:27:04;;;;;;;3.97;1.95;;;25.80;47.90;;;;;;6221360;28;20116;-77
2021/08/24 10:30:13;;;;;;;4.18;2.25;;;25.90;47.50;;;;;;6243039;28;20044;-76
2021/08/24 10:33:35;;;;;;;4.28;2.08;;;26.00;47.30;;;;;;6243832;28;20120;-76
2021/08/24 10:36:43;;;;;;;4.70;2.17;;;26.10;47.10;;;;;;6248036;28;20429;-77
2021/08/24 10:39:44;;;;;;;3.67;2.25;;;26.30;46.80;;;;;;6249591;28;20045;-78
2021/08/24 10:43:15;;;;;;;12.73;1.77;;;26.50;46.60;;;;;;6246470;28;20042;-77
2021/08/24 10:46:17;;;;;;;5.03;1.92;;;26.70;46.30;;;;;;6244518;28;20044;-77
2021/08/24 10:49:19;;;;;;;11.23;1.88;;;27.00;45.90;;;;;;6229430;28;20478;-78
2021/08/24 10:52:54;;;;;;;5.13;2.13;;;27.30;45.30;;;;;;6246116;28;20103;-78
2021/08/24 10:56:07;;;;;;;4.28;2.05;;;27.50;44.60;;;;;;6244307;28;20033;-77
2021/08/24 10:59:19;;;;;;;4.20;2.10;;;27.70;44.10;;;;;;6248450;28;20033;-77
2021/08/24 11:02:28;;;;;;;2.63;1.73;;;27.70;43.80;;;;;;6246551;28;20035;-77
2021/08/24 11:05:46;;;;;;;2.17;1.60;;;27.70;43.70;;;;;;6223806;28;20033;-77
2021/08/24 11:09:09;;;;;;;5.50;1.55;;;27.80;43.50;;;;;;6230519;28;20454;-78
2021/08/24 11:12:25;;;;;;;2.00;1.50;;;28.00;43.30;;;;;;6247570;28;20030;-78
2021/08/24 11:15:33;;;;;;;3.80;1.80;;;28.20;42.70;;;;;;6245708;28;20125;-76
2021/08/24 11:18:48;;;;;;;2.33;1.70;;;28.40;42.30;;;;;;6206304;28;20030;-77
2021/08/24 11:22:13;;;;;;;2.80;1.60;;;28.50;42.00;;;;;;6220719;28;20050;-77
2021/08/24 11:25:46;;;;;;;3.72;1.88;;;28.40;41.90;;;;;;6223446;28;20454;-77
2021/08/24 11:29:02;;;;;;;2.67;1.60;;;28.40;41.80;;;;;;6242418;28;20086;-75
2021/08/24 11:32:39;;;;;;;1.80;1.40;;;28.40;41.70;;;;;;6246671;28;20496;-78
2021/08/24 11:35:43;;;;;;;3.55;1.60;;;28.30;41.70;;;;;;6201734;28;20061;-77
2021/08/24 11:47:39;;;;;;;2.92;1.40;;;28.00;41.00;;;;;;6216058;28;20042;-77
2021/08/24 11:50:49;;;;;;;3.08;1.40;;;27.90;40.90;;;;;;6210480;28;20030;-77
2021/08/24 11:54:10;;;;;;;7.43;1.60;;;27.90;41.10;;;;;;6178563;28;20046;-76
2021/08/24 11:57:42;;;;;;;2.00;1.30;;;27.90;41.20;;;;;;6195019;28;20158;-76
2021/08/24 12:00:51;;;;;;;1.58;1.33;;;27.90;41.00;;;;;;6121576;29;20047;-76
2021/08/24 12:03:55;;;;;;;2.92;1.20;;;28.10;40.80;;;;;;6125177;28;20115;-76
2021/08/24 12:07:00;;;;;;;1.67;1.20;;;28.30;41.20;;;;;;6123218;29;20134;-76
2021/08/24 12:10:27;;;;;;;2.03;1.20;;;28.50;40.30;;;;;;6124147;29;20036;-77
2021/08/24 12:13:39;;;;;;;1.30;1.10;;;28.80;39.90;;;;;;6133579;28;20090;-77
2021/08/24 12:16:40;;;;;;;2.03;1.35;;;29.40;39.10;;;;;;6145049;28;20066;-75
2021/08/24 12:19:54;;;;;;;1.80;1.30;;;29.80;38.30;;;;;;6130583;28;20035;-76
2021/08/24 12:22:59;;;;;;;3.10;1.55;;;30.10;37.90;;;;;;6154266;28;20046;-77
2021/08/24 12:26:22;;;;;;;2.30;1.77;;;30.20;37.80;;;;;;6137054;28;20325;-75
2021/08/24 12:29:32;;;;;;;2.05;1.60;;;30.20;37.70;;;;;;6137954;28;20471;-76
2021/08/24 12:32:39;;;;;;;2.75;1.60;;;30.30;37.50;;;;;;6146782;28;20098;-78
2021/08/24 12:35:42;;;;;;;5.18;1.80;;;30.40;37.40;;;;;;6153230;28;20117;-76
2021/08/24 12:38:50;;;;;;;4.07;2.10;;;30.60;37.20;;;;;;6201318;28;20044;-76
2021/08/24 12:42:19;;;;;;;2.47;1.50;;;30.80;37.60;;;;;;6220334;28;20045;-76
2021/08/24 12:45:24;;;;;;;5.22;2.05;;;31.10;36.90;;;;;;6222423;28;20057;-75
2021/08/24 12:48:25;;;;;;;2.47;1.70;;;31.10;36.70;;;;;;6243729;28;20034;-76
2021/08/24 12:51:31;;;;;;;7.68;2.05;;;31.10;36.90;;;;;;6245651;28;20342;-78
2021/08/24 12:54:47;;;;;;;4.30;1.90;;;30.90;37.00;;;;;;6243274;28;20061;-77
2021/08/24 12:57:58;;;;;;;5.55;2.40;;;30.90;37.30;;;;;;6241500;28;20120;-76
2021/08/24 13:01:18;;;;;;;2.33;1.83;;;30.80;37.40;;;;;;6242941;28;20394;-76
2021/08/24 13:04:24;;;;;;;3.30;1.85;;;30.50;37.80;;;;;;6245132;28;20091;-75
2021/08/24 13:07:56;;;;;;;5.85;2.10;;;30.20;38.30;;;;;;6243804;28;20115;-75
2021/08/24 13:11:23;;;;;;;6.95;2.53;;;29.80;38.90;;;;;;6244595;28;20116;-75
2021/08/24 13:14:46;;;;;;;6.35;2.40;;;29.50;39.60;;;;;;6241293;28;20050;-75
2021/08/24 13:17:50;;;;;;;2.92;2.17;;;29.30;39.70;;;;;;6242162;28;20111;-76
2021/08/24 13:20:53;;;;;;;5.40;2.40;;;29.40;39.90;;;;;;6243183;28;20044;-75
2021/08/24 13:24:00;;;;;;;6.78;2.15;;;29.40;39.90;;;;;;6243708;28;20077;-75
2021/08/24 13:27:07;;;;;;;2.65;2.20;;;29.40;40.00;;;;;;6225357;28;20048;-75
2021/08/24 13:30:10;;;;;;;9.38;2.90;;;29.20;40.20;;;;;;6218272;28;20120;-75
2021/08/24 13:33:17;;;;;;;5.90;2.10;;;28.90;40.50;;;;;;6224549;28;20037;-76
2021/08/24 13:36:33;;;;;;;4.60;3.17;;;28.80;40.90;;;;;;6243296;28;20057;-76
2021/08/24 13:39:50;;;;;;;3.25;2.10;;;28.60;41.20;;;;;;6204576;28;20036;-77
2021/08/24 13:42:51;;;;;;;6.97;2.40;;;28.40;41.60;;;;;;6241449;28;20029;-76
2021/08/24 13:45:54;;;;;;;5.88;2.45;;;28.40;41.80;;;;;;6224327;28;20122;-76
2021/08/24 13:48:57;;;;;;;5.30;3.03;;;28.30;42.10;;;;;;6240729;28;20104;-75
2021/08/24 13:52:02;;;;;;;2.85;2.10;;;28.20;43.00;;;;;;6241917;28;20461;-75
2021/08/24 13:55:21;;;;;;;3.40;2.25;;;28.00;42.60;;;;;;6224661;28;20430;-75
2021/08/24 13:58:31;;;;;;;5.75;2.38;;;27.90;42.90;;;;;;6223814;28;20033;-75
2021/08/24 14:01:38;;;;;;;4.78;2.20;;;27.80;43.10;;;;;;6242318;28;20030;-77
2021/08/24 14:04:45;;;;;;;2.78;2.08;;;27.70;43.10;;;;;;6247875;28;20469;-76
2021/08/24 14:07:57;;;;;;;5.75;2.17;;;27.70;43.30;;;;;;6244740;28;20389;-76
2021/08/24 14:11:00;;;;;;;4.95;2.33;;;27.60;43.40;;;;;;6247298;28;20040;-76
2021/08/24 14:14:01;;;;;;;3.45;2.65;;;27.60;43.50;;;;;;6250426;28;20052;-77
2021/08/24 14:17:03;;;;;;;3.58;2.47;;;27.50;43.60;;;;;;6230684;28;20046;-78
2021/08/24 14:20:13;;;;;;;6.10;2.38;;;27.50;43.80;;;;;;6231923;28;20041;-77
2021/08/24 14:23:21;;;;;;;6.05;2.42;;;27.40;44.10;;;;;;6248778;28;20079;-76
2021/08/24 14:26:24;;;;;;;;;;;27.30;44.20;;;;;;6248767;28;20030;-76
2021/08/24 14:29:26;;;;;;;3.20;2.08;;;27.40;44.20;;;;;;6248440;28;19924;-76
2021/08/24 14:32:35;;;;;;;3.50;2.28;;;27.40;44.20;;;;;;6229822;28;20419;-77
2021/08/24 14:35:57;;;;;;;4.35;2.88;;;27.40;44.30;;;;;;6248551;28;20056;-77
2021/08/24 14:39:23;;;;;;;5.63;2.70;;;27.40;44.40;;;;;;6247170;28;20034;-77
2021/08/24 14:42:37;;;;;;;7.22;2.15;;;27.40;44.40;;;;;;6246667;28;20040;-77
2021/08/24 14:45:38;;;;;;;6.38;2.40;;;27.40;44.50;;;;;;6247708;28;20033;-77
2021/08/24 14:48:41;;;;;;;4.75;2.28;;;27.30;44.70;;;;;;6251428;28;20098;-77
2021/08/24 14:51:43;;;;;;;3.20;1.90;;;27.20;44.90;;;;;;6246821;28;20355;-76
2021/08/24 14:55:01;;;;;;;3.58;2.47;;;27.10;45.10;;;;;;6242945;28;20044;-77
2021/08/24 14:58:05;;;;;;;5.72;2.70;;;27.00;45.20;;;;;;6244693;28;20402;-77
2021/08/24 15:01:19;;;;;;;3.40;2.33;;;27.00;45.30;;;;;;6229539;28;20053;-77
2021/08/24 15:04:23;;;;;;;4.68;2.17;;;27.00;45.50;;;;;;6245231;28;20347;-78
2021/08/24 15:07:25;;;;;;;4.22;2.20;;;27.00;45.70;;;;;;6246411;28;20454;-77
2021/08/24 15:10:27;;;;;;;4.60;2.47;;;26.90;45.70;;;;;;6246021;28;20166;-76
2021/08/24 15:13:32;;;;;;;3.15;2.08;;;26.90;45.80;;;;;;6246742;28;20041;-77
2021/08/24 15:16:36;;;;;;;3.83;2.45;;;26.90;45.90;;;;;;6245688;28;20080;-77
2021/08/24 15:19:41;;;;;;;6.28;2.42;;;26.80;45.90;;;;;;6246383;28;20033;-77
2021/08/24 15:22:50;;;;;;;4.10;2.30;;;26.90;45.90;;;;;;6246221;28;20038;-76
2021/08/24 15:26:21;;;;;;;3.75;2.72;;;26.90;45.90;;;;;;6229597;28;20065;-76
2021/08/24 15:29:32;;;;;;;4.85;2.83;;;26.90;46.00;;;;;;6230378;28;20037;-76
2021/08/24 15:32:39;;;;;;;3.25;2.25;;;27.00;45.90;;;;;;6230021;28;20033;-77
2021/08/24 15:35:40;;;;;;;2.33;2.13;;;27.00;45.80;;;;;;6246882;28;20374;-77
2021/08/24 15:38:42;;;;;;;8.48;2.60;;;27.10;45.70;;;;;;6245075;28;20088;-78
2021/08/24 15:41:48;;;;;;;6.68;2.25;;;27.10;45.80;;;;;;6248286;28;20041;-77
2021/08/24 15:44:49;;;;;;;4.28;2.25;;;27.10;45.80;;;;;;6245177;28;20056;-77
2021/08/24 15:47:51;;;;;;;3.47;2.33;;;27.10;45.70;;;;;;6246639;28;20046;-77
2021/08/24 15:50:53;;;;;;;5.50;2.17;;;27.10;45.80;;;;;;6229153;28;20037;-76
2021/08/24 15:53:54;;;;;;;3.03;2.08;;;27.10;45.70;;;;;;6246153;28;20060;-77
2021/08/24 15:56:56;;;;;;;3.83;1.80;;;27.10;45.80;;;;;;6246628;28;20029;-76
2021/08/24 15:59:59;;;;;;;4.32;2.40;;;27.00;45.80;;;;;;6249669;28;20385;-76
2021/08/24 16:03:00;;;;;;;3.20;2.28;;;26.90;45.90;;;;;;6244926;28;20345;-76
2021/08/24 16:06:01;;;;;;;3.33;2.30;;;26.90;46.00;;;;;;6246779;28;20033;-75
2021/08/24 16:09:06;;;;;;;3.70;2.10;;;26.90;46.10;;;;;;6245817;28;20116;-76
2021/08/24 16:12:10;;;;;;;3.15;2.30;;;26.90;46.10;;;;;;6248078;28;20048;-76
2021/08/24 16:15:11;;;;;;;4.90;2.08;;;26.60;45.90;;;;;;6226315;28;20447;-76
2021/08/24 16:18:14;;;;;;;2.92;1.92;;;27.00;46.00;;;;;;6221418;28;20038;-77
2021/08/24 16:21:15;;;;;;;6.38;2.10;;;27.00;45.90;;;;;;6223208;28;20091;-77
2021/08/24 16:24:17;;;;;;;5.28;2.53;;;27.10;45.90;;;;;;6247274;28;20056;-77
2021/08/24 16:27:18;;;;;;;3.33;2.10;;;27.10;45.90;;;;;;6241640;28;20033;-77